createdAt,value
2022-09-14T00:04:01.649Z,18.75
2022-09-14T00:08:04.055Z,18.73
2022-09-14T00:12:06.733Z,18.64
2022-09-14T00:16:14.041Z,18.58
2022-09-14T00:20:16.284Z,18.60
2022-09-14T00:24:19.115Z,18.65
2022-09-14T00:28:21.176Z,18.65
2022-09-14T00:32:23.165Z,18.59
2022-09-14T00:36:28.268Z,18.53
2022-09-14T00:40:30.517Z,18.53
2022-09-14T00:44:32.468Z,18.57
2022-09-14T00:48:34.494Z,18.57
2022-09-14T00:52:40.816Z,18.55
2022-09-14T00:56:42.856Z,18.54
2022-09-14T01:00:44.897Z,18.57
2022-09-14T01:04:48.174Z,18.59
2022-09-14T01:09:08.983Z,18.58
2022-09-14T01:13:33.190Z,18.57
2022-09-14T01:17:51.040Z,18.55
2022-09-14T01:21:55.683Z,18.52
2022-09-14T01:26:24.940Z,18.51
2022-09-14T01:30:31.875Z,18.51
2022-09-14T01:34:40.153Z,18.56
2022-09-14T01:38:45.965Z,18.55
2022-09-14T01:42:53.070Z,18.59
2022-09-14T01:46:59.957Z,18.60
2022-09-14T01:51:08.009Z,18.63
2022-09-14T01:55:38.378Z,18.64
2022-09-14T01:59:45.944Z,18.62
2022-09-14T02:03:52.091Z,18.63
2022-09-14T02:07:55.424Z,18.61
2022-09-14T02:12:00.718Z,18.60
2022-09-14T02:16:02.980Z,18.54
2022-09-14T02:20:07.883Z,18.58
2022-09-14T02:24:11.044Z,18.60
2022-09-14T02:28:13.243Z,18.60
2022-09-14T02:32:52.781Z,18.64
2022-09-14T02:37:21.167Z,18.70
2022-09-14T02:41:37.164Z,18.71
2022-09-14T02:46:01.483Z,18.60
2022-09-14T02:50:18.957Z,18.52
2022-09-14T02:54:28.418Z,18.57
2022-09-14T02:58:38.621Z,18.59
2022-09-14T03:02:40.613Z,18.67
2022-09-14T03:06:42.611Z,18.67
2022-09-14T03:10:44.666Z,18.67
2022-09-14T03:14:46.626Z,18.69
2022-09-14T03:18:48.615Z,18.69
2022-09-14T03:22:50.809Z,18.67
2022-09-14T03:26:52.877Z,18.62
2022-09-14T03:30:55.209Z,18.58
2022-09-14T03:34:57.691Z,18.57
2022-09-14T03:39:01.805Z,18.60
2022-09-14T03:43:03.836Z,18.65
2022-09-14T03:47:06.680Z,18.67
2022-09-14T03:51:10.604Z,18.67
2022-09-14T03:55:12.622Z,18.70
2022-09-14T03:59:14.587Z,18.70
2022-09-14T04:03:16.774Z,18.71
2022-09-14T04:07:18.782Z,18.71
2022-09-14T04:11:23.712Z,18.64
2022-09-14T04:15:25.925Z,18.67
2022-09-14T04:19:28.184Z,18.68
2022-09-14T04:23:30.876Z,18.65
2022-09-14T04:27:32.949Z,18.62
2022-09-14T04:31:35.532Z,18.62
2022-09-14T04:35:37.805Z,18.55
2022-09-14T04:39:39.877Z,18.49
2022-09-14T04:43:43.558Z,18.44
2022-09-14T04:47:45.530Z,18.42
2022-09-14T04:51:48.043Z,18.42
2022-09-14T04:55:50.023Z,18.42
2022-09-14T04:59:51.998Z,18.39
2022-09-14T05:03:54.920Z,18.35
2022-09-14T05:07:56.909Z,18.32
2022-09-14T05:11:58.887Z,18.33
2022-09-14T05:16:15.134Z,18.32
2022-09-14T05:20:17.277Z,18.34
2022-09-14T05:24:19.312Z,18.39
2022-09-14T05:28:21.368Z,18.43
2022-09-14T05:32:23.457Z,18.46
2022-09-14T05:36:25.798Z,18.48
2022-09-14T05:40:27.848Z,18.46
2022-09-14T05:44:29.899Z,18.50
2022-09-14T05:48:36.021Z,18.53
2022-09-14T05:52:38.000Z,18.58
2022-09-14T05:56:40.131Z,18.62
2022-09-14T06:00:42.095Z,18.65
2022-09-14T06:04:44.118Z,18.68
2022-09-14T06:08:50.099Z,18.70
2022-09-14T06:12:55.494Z,18.74
2022-09-14T06:16:57.692Z,18.73
2022-09-14T06:20:59.850Z,18.76
2022-09-14T06:25:01.834Z,18.79
2022-09-14T06:29:04.052Z,18.83
2022-09-14T06:33:06.091Z,18.85
2022-09-14T06:37:08.130Z,18.85
2022-09-14T06:41:12.713Z,18.86
2022-09-14T06:45:14.735Z,18.87
2022-09-14T06:49:20.552Z,18.86
2022-09-14T06:53:22.855Z,18.89
2022-09-14T06:57:24.840Z,18.91
2022-09-14T07:01:27.602Z,18.94
2022-09-14T07:05:30.961Z,18.98
2022-09-14T07:09:32.957Z,19.07
2022-09-14T07:13:35.701Z,19.18
2022-09-14T07:17:37.704Z,19.26
2022-09-14T07:21:40.250Z,19.30
2022-09-14T07:25:42.325Z,19.34
2022-09-14T07:29:44.347Z,19.39
2022-09-14T07:33:46.892Z,19.43
2022-09-14T07:37:48.896Z,19.43
2022-09-14T07:41:50.896Z,19.44
2022-09-14T07:45:52.918Z,19.46
2022-09-14T07:49:55.022Z,19.44
2022-09-14T07:53:58.005Z,19.51
2022-09-14T07:57:59.998Z,19.60
2022-09-14T08:02:02.386Z,19.63
2022-09-14T08:06:07.159Z,19.69
2022-09-14T08:10:09.251Z,19.79
2022-09-14T08:14:13.934Z,19.89
2022-09-14T08:18:16.145Z,19.89
2022-09-14T08:22:18.322Z,19.82
2022-09-14T08:26:22.697Z,19.71
2022-09-14T08:30:24.776Z,19.66
2022-09-14T08:34:26.884Z,19.65
2022-09-14T08:38:29.311Z,19.63
2022-09-14T08:42:31.756Z,19.66
2022-09-14T08:46:39.267Z,19.58
2022-09-14T08:50:41.748Z,19.54
2022-09-14T08:54:44.037Z,19.55
2022-09-14T08:59:04.583Z,19.54
2022-09-14T09:03:29.580Z,19.59
2022-09-14T09:07:35.137Z,19.75
2022-09-14T09:11:41.689Z,19.91
2022-09-14T09:15:49.267Z,20.15
2022-09-14T09:19:59.488Z,20.24
2022-09-14T09:24:37.219Z,20.23
2022-09-14T09:28:45.266Z,20.10
2022-09-14T09:32:47.389Z,19.85
2022-09-14T09:37:19.173Z,19.68
2022-09-14T09:41:29.189Z,19.62
2022-09-14T09:46:01.290Z,19.67
2022-09-14T09:50:16.071Z,19.82
2022-09-14T09:54:26.337Z,20.27
2022-09-14T09:58:29.977Z,20.60
2022-09-14T10:02:32.199Z,20.74
2022-09-14T10:06:43.286Z,20.70
2022-09-14T10:10:45.827Z,20.48
2022-09-14T10:14:48.188Z,20.27
2022-09-14T10:18:52.479Z,20.12
2022-09-14T10:22:54.723Z,20.20
2022-09-14T10:26:56.897Z,20.42
2022-09-14T10:31:12.141Z,20.41
2022-09-14T10:35:15.725Z,20.47
2022-09-14T10:39:28.095Z,20.63
2022-09-14T10:43:48.091Z,20.59
2022-09-14T10:48:06.256Z,20.85
2022-09-14T10:52:16.224Z,21.11
2022-09-14T10:56:21.791Z,21.40
2022-09-14T11:00:24.097Z,21.66
2022-09-14T11:04:47.962Z,21.83
2022-09-14T11:09:02.252Z,21.95
2022-09-14T11:13:45.763Z,21.74
2022-09-14T11:18:02.596Z,21.45
2022-09-14T11:22:23.738Z,21.30
2022-09-14T11:26:33.122Z,21.23
2022-09-14T11:30:49.213Z,21.22
2022-09-14T11:35:03.387Z,21.12
2022-09-14T11:39:15.846Z,21.07
2022-09-14T11:43:27.740Z,21.06
2022-09-14T11:47:37.505Z,21.24
2022-09-14T11:52:04.657Z,21.58
2022-09-14T11:56:23.651Z,22.12
2022-09-14T12:00:25.569Z,22.71
2022-09-14T12:04:27.698Z,22.86
2022-09-14T12:08:32.740Z,22.79
2022-09-14T12:12:38.741Z,22.76
2022-09-14T12:21:43.406Z,22.72
2022-09-14T12:26:10.252Z,22.61
2022-09-14T12:30:41.133Z,22.80
2022-09-14T12:34:43.341Z,22.99
2022-09-14T12:38:54.245Z,23.10
2022-09-14T12:42:56.349Z,23.25
2022-09-14T12:46:58.613Z,23.40
2022-09-14T12:51:02.307Z,23.46
2022-09-14T12:55:18.266Z,23.45
2022-09-14T12:59:45.726Z,23.46
2022-09-14T13:03:53.777Z,23.62
2022-09-14T13:07:56.482Z,23.68
2022-09-14T13:12:06.425Z,23.49
2022-09-14T13:16:08.732Z,23.25
2022-09-14T13:20:18.282Z,22.98
2022-09-14T13:24:24.359Z,22.83
2022-09-14T13:28:31.188Z,22.69
2022-09-14T13:32:42.083Z,22.50
2022-09-14T13:36:44.363Z,22.33
2022-09-14T13:40:49.737Z,22.17
2022-09-14T13:44:52.969Z,22.10
2022-09-14T13:48:55.971Z,21.95
2022-09-14T13:53:02.468Z,21.91
2022-09-14T13:57:31.272Z,21.85
2022-09-14T14:01:37.858Z,21.77
2022-09-14T14:05:42.549Z,21.62
2022-09-14T14:09:50.706Z,21.51
2022-09-14T14:13:53.191Z,21.43
2022-09-14T14:17:55.279Z,21.33
2022-09-14T14:22:15.594Z,21.21
2022-09-14T14:26:26.220Z,21.10
2022-09-14T14:30:30.168Z,21.03
2022-09-14T14:34:32.166Z,20.97
2022-09-14T14:38:34.204Z,20.94
2022-09-14T14:42:36.324Z,20.91
2022-09-14T14:46:38.490Z,20.87
2022-09-14T14:50:40.499Z,20.87
2022-09-14T14:54:42.503Z,20.86
2022-09-14T14:58:46.606Z,20.84
2022-09-14T15:02:49.433Z,20.86
2022-09-14T15:06:52.067Z,20.93
2022-09-14T15:10:57.210Z,21.00
2022-09-14T15:14:59.727Z,20.98
2022-09-14T15:19:02.087Z,20.89
2022-09-14T15:23:04.483Z,20.82
2022-09-14T15:27:06.459Z,20.72
2022-09-14T15:31:08.514Z,20.63
2022-09-14T15:35:12.842Z,20.52
2022-09-14T15:39:14.839Z,20.42
2022-09-14T15:43:17.080Z,20.33
2022-09-14T15:47:19.057Z,20.26
2022-09-14T15:51:21.180Z,20.19
2022-09-14T15:55:23.240Z,20.09
2022-09-14T15:59:25.618Z,20.13
2022-09-14T16:03:27.617Z,20.11
2022-09-14T16:07:29.859Z,20.06
2022-09-14T16:11:33.459Z,19.97
2022-09-14T16:15:35.435Z,19.91
2022-09-14T16:19:37.746Z,19.96
2022-09-14T16:23:42.594Z,19.77
2022-09-14T16:27:44.676Z,19.40
2022-09-14T16:31:48.451Z,19.39
2022-09-14T16:35:50.464Z,19.52
2022-09-14T16:39:52.513Z,19.62
2022-09-14T16:43:59.428Z,19.68
2022-09-14T16:48:01.701Z,19.67
2022-09-14T16:52:03.709Z,19.74
2022-09-14T16:56:07.616Z,19.68
2022-09-14T17:00:10.267Z,19.59
2022-09-14T17:04:15.050Z,19.50
2022-09-14T17:08:17.080Z,19.45
2022-09-14T17:12:19.056Z,19.32
2022-09-14T17:16:23.158Z,18.77
2022-09-14T17:20:25.237Z,18.49
2022-09-14T17:24:27.587Z,18.49
2022-09-14T17:28:29.591Z,18.53
2022-09-14T17:32:33.471Z,18.58
2022-09-14T17:36:35.638Z,18.56
2022-09-14T17:40:37.607Z,18.55
2022-09-14T17:44:40.866Z,18.56
2022-09-14T17:48:43.499Z,18.58
2022-09-14T17:52:45.514Z,18.59
2022-09-14T17:56:47.697Z,18.59
2022-09-14T18:00:50.347Z,18.62
2022-09-14T18:04:52.521Z,18.63
2022-09-14T18:08:57.753Z,18.62
2022-09-14T18:12:59.729Z,18.61
2022-09-14T18:17:01.690Z,18.65
2022-09-14T18:21:04.470Z,18.71
2022-09-14T18:25:08.395Z,18.69
2022-09-14T18:29:14.969Z,18.68
2022-09-14T18:33:17.497Z,18.67
2022-09-14T18:37:20.382Z,18.66
2022-09-14T18:41:22.365Z,18.66
2022-09-14T18:45:24.344Z,18.70
2022-09-14T18:49:26.370Z,18.73
2022-09-14T18:53:28.653Z,18.77
2022-09-14T18:57:30.662Z,18.80
2022-09-14T19:01:34.362Z,18.85
2022-09-14T19:05:39.729Z,18.88
2022-09-14T19:09:41.841Z,18.90
2022-09-14T19:13:44.808Z,18.94
2022-09-14T19:17:46.889Z,18.97
2022-09-14T19:21:48.870Z,19.00
2022-09-14T19:25:50.860Z,19.02
2022-09-14T19:29:52.900Z,19.01
2022-09-14T19:33:54.968Z,18.98
2022-09-14T19:37:58.020Z,18.92
2022-09-14T19:42:00.009Z,18.89
2022-09-14T19:46:11.902Z,18.91
2022-09-14T19:50:14.082Z,18.92
2022-09-14T19:54:16.868Z,18.92
2022-09-14T19:58:19.356Z,18.90
2022-09-14T20:02:21.421Z,18.86
2022-09-14T20:06:32.332Z,18.86
2022-09-14T20:10:34.843Z,18.84
2022-09-14T20:14:36.828Z,18.82
2022-09-14T20:18:40.274Z,18.82
2022-09-14T20:22:42.307Z,18.80
2022-09-14T20:26:49.616Z,18.71
2022-09-14T20:30:59.169Z,18.61
2022-09-14T20:35:01.219Z,18.55
2022-09-14T20:39:04.008Z,18.37
2022-09-14T20:43:05.982Z,18.17
2022-09-14T20:47:07.991Z,18.03
2022-09-14T20:51:10.124Z,17.85
2022-09-14T20:55:12.121Z,17.71
2022-09-14T20:59:16.489Z,17.56
2022-09-14T21:03:18.452Z,17.45
2022-09-14T21:07:20.476Z,17.33
2022-09-14T21:11:25.256Z,17.29
2022-09-14T21:15:27.529Z,17.35
2022-09-14T21:19:29.692Z,17.47
2022-09-14T21:23:31.701Z,17.48
2022-09-14T21:27:33.713Z,17.54
2022-09-14T21:31:37.369Z,17.60
2022-09-14T21:35:39.410Z,17.61
2022-09-14T21:39:41.739Z,17.56
2022-09-14T21:43:43.900Z,17.54
2022-09-14T21:47:46.492Z,17.61
2022-09-14T21:51:49.103Z,17.64
2022-09-14T21:55:51.138Z,17.69
2022-09-14T21:59:53.133Z,17.75
2022-09-14T22:03:56.811Z,17.83
2022-09-14T22:07:58.910Z,17.89
2022-09-14T22:12:00.928Z,17.95
2022-09-14T22:16:11.604Z,17.99
2022-09-14T22:20:14.182Z,17.97
2022-09-14T22:24:20.636Z,17.95
2022-09-14T22:28:23.151Z,17.97
2022-09-14T22:32:25.185Z,17.96
2022-09-14T22:36:27.694Z,17.93
2022-09-14T22:40:29.699Z,17.95
2022-09-14T22:44:31.682Z,17.94
2022-09-14T22:48:33.947Z,17.95
2022-09-14T22:52:35.928Z,17.95
2022-09-14T22:56:38.990Z,17.95
2022-09-14T23:00:42.043Z,17.95
2022-09-14T23:04:44.010Z,17.97
2022-09-14T23:08:47.138Z,17.98
2022-09-14T23:12:49.163Z,17.93
2022-09-14T23:16:51.300Z,17.93
2022-09-14T23:20:53.979Z,17.96
2022-09-14T23:24:56.023Z,17.97
2022-09-14T23:29:06.704Z,17.94
2022-09-14T23:33:09.049Z,17.93
2022-09-14T23:37:11.548Z,17.95
2022-09-14T23:41:15.269Z,17.98
2022-09-14T23:45:17.552Z,18.01
2022-09-14T23:49:19.626Z,18.03
2022-09-14T23:53:21.628Z,18.05
2022-09-14T23:57:23.697Z,18.04
